Wetterdaten: Woche 30.04.18 - 06.05.18 (KW18)
Datum Zeit Temp. A. Feuchte A. Luftdruck Regen Wind Richtung Taupunkt Windchill Windben
30.04.2018 00:00 19,4 C 58 % 1004,5 hPa 0,0 l/m 0,4 km/h N 10,8 C 19,4 C 5,2 km/h
30.04.2018 01:00 19,3 C 58 % 1003,9 hPa 0,0 l/m 0,0 km/h N 10,9 C 19,3 C 1,6 km/h
30.04.2018 02:00 18,5 C 61 % 1003,4 hPa 0,0 l/m 0,0 km/h N 10,7 C 18,5 C 0,4 km/h
30.04.2018 03:00 17,4 C 64 % 1003,3 hPa 0,0 l/m 0,0 km/h N 10,5 C 17,4 C 1,2 km/h
30.04.2018 04:00 16,1 C 68 % 1002,9 hPa 0,0 l/m 0,0 km/h N 10,3 C 16,1 C 0,4 km/h
30.04.2018 05:00 15,6 C 70 % 1002,9 hPa 0,0 l/m 0,1 km/h N 10,1 C 15,6 C 1,6 km/h
30.04.2018 06:00 17,6 C 63 % 1003,0 hPa 0,0 l/m 0,2 km/h N 10,4 C 17,6 C 3,6 km/h
30.04.2018 07:00 18,4 C 61 % 1003,2 hPa 0,0 l/m 1,8 km/h N 10,8 C 18,4 C 7,6 km/h
30.04.2018 08:00 19,5 C 60 % 1003,2 hPa 0,0 l/m 3,2 km/h N 11,5 C 19,5 C 9,6 km/h
30.04.2018 09:00 22,7 C 53 % 1002,7 hPa 0,0 l/m 4,1 km/h N 12,5 C 22,7 C 14,5 km/h
30.04.2018 10:00 23,7 C 48 % 1003,0 hPa 0,0 l/m 3,0 km/h N 12,1 C 23,7 C 12,1 km/h
30.04.2018 11:00 25,1 C 47 % 1002,6 hPa 0,0 l/m 2,9 km/h N 12,8 C 25,1 C 15,3 km/h
30.04.2018 12:00 26,5 C 40 % 1002,1 hPa 0,0 l/m 4,9 km/h N 11,9 C 26,5 C 18,9 km/h
30.04.2018 13:00 27,0 C 41 % 1002,3 hPa 0,0 l/m 5,3 km/h N 12,5 C 26,9 C 21,7 km/h
30.04.2018 14:00 24,3 C 49 % 1002,8 hPa 0,0 l/m 5,9 km/h N 12,8 C 24,3 C 16,9 km/h
30.04.2018 15:00 26,0 C 40 % 1002,5 hPa 0,0 l/m 1,8 km/h N 11,3 C 26,0 C 11,2 km/h
30.04.2018 16:00 26,5 C 38 % 1002,2 hPa 0,0 l/m 5,9 km/h N 11,1 C 26,5 C 21,3 km/h
30.04.2018 17:00 25,9 C 38 % 1002,2 hPa 0,0 l/m 5,1 km/h N 10,5 C 25,9 C 18,9 km/h
30.04.2018 18:00 24,9 C 38 % 1002,0 hPa 0,0 l/m 5,8 km/h N 9,6 C 24,9 C 20,5 km/h
30.04.2018 19:00 23,6 C 39 % 1002,4 hPa 0,0 l/m 5,2 km/h N 8,9 C 23,6 C 20,5 km/h
30.04.2018 20:00 22,0 C 42 % 1003,2 hPa 0,0 l/m 2,7 km/h N 8,4 C 22,0 C 12,1 km/h
30.04.2018 21:00 20,5 C 43 % 1003,7 hPa 0,0 l/m 1,6 km/h N 7,4 C 20,5 C 9,6 km/h
30.04.2018 22:00 18,9 C 47 % 1004,1 hPa 0,0 l/m 0,2 km/h N 7,3 C 18,9 C 3,6 km/h
30.04.2018 23:00 15,9 C 56 % 1004,5 hPa 0,0 l/m 0,0 km/h N 7,1 C 15,9 C 0,4 km/h
01.05.2018 00:00 14,0 C 64 % 1005,0 hPa 0,0 l/m 0,0 km/h N 7,3 C 14,0 C 0,8 km/h
01.05.2018 01:00 12,8 C 68 % 1005,5 hPa 0,0 l/m 0,0 km/h N 7,1 C 12,8 C 0,0 km/h
01.05.2018 02:00 12,2 C 73 % 1005,9 hPa 0,0 l/m 0,0 km/h N 7,5 C 12,2 C 0,0 km/h
01.05.2018 03:00 12,0 C 74 % 1006,0 hPa 0,0 l/m 0,0 km/h N 7,5 C 12,0 C 0,4 km/h
01.05.2018 04:00 12,6 C 72 % 1006,4 hPa 0,0 l/m 0,0 km/h N 7,7 C 12,6 C 1,2 km/h
01.05.2018 05:00 14,2 C 65 % 1006,4 hPa 0,0 l/m 0,3 km/h N 7,6 C 14,2 C 6,8 km/h
01.05.2018 06:00 14,7 C 63 % 1007,2 hPa 0,0 l/m 0,7 km/h N 7,6 C 14,7 C 11,3 km/h
01.05.2018 07:00 14,9 C 62 % 1008,3 hPa 0,0 l/m 1,0 km/h N 7,7 C 14,9 C 8,4 km/h
01.05.2018 08:00 16,3 C 57 % 1009,0 hPa 0,0 l/m 5,0 km/h N 7,7 C 16,2 C 21,7 km/h
01.05.2018 09:00 17,1 C 53 % 1009,5 hPa 0,0 l/m 4,3 km/h N 7,3 C 17,1 C 16,5 km/h
01.05.2018 10:00 17,9 C 52 % 1010,0 hPa 0,0 l/m 3,1 km/h N 7,9 C 17,9 C 15,7 km/h
01.05.2018 11:00 19,5 C 50 % 1010,0 hPa 0,0 l/m 2,3 km/h N 8,7 C 19,5 C 10,4 km/h
01.05.2018 12:00 20,8 C 47 % 1009,8 hPa 0,0 l/m 0,9 km/h N 9,0 C 20,8 C 6,0 km/h
01.05.2018 13:00 22,5 C 47 % 1009,8 hPa 0,0 l/m 0,6 km/h N 10,7 C 22,5 C 7,6 km/h
01.05.2018 14:00 23,4 C 45 % 1009,6 hPa 0,0 l/m 0,9 km/h N 10,6 C 23,4 C 8,1 km/h
01.05.2018 15:00 22,9 C 46 % 1009,5 hPa 0,0 l/m 0,5 km/h N 10,7 C 22,9 C 7,2 km/h
01.05.2018 16:00 22,6 C 46 % 1009,1 hPa 0,0 l/m 1,2 km/h N 10,3 C 22,6 C 10,1 km/h
01.05.2018 17:00 22,5 C 45 % 1008,8 hPa 0,0 l/m 1,1 km/h N 10,1 C 22,5 C 10,1 km/h
01.05.2018 18:00 22,1 C 43 % 1008,5 hPa 0,0 l/m 0,1 km/h N 8,7 C 22,1 C 3,2 km/h
01.05.2018 19:00 21,4 C 47 % 1008,5 hPa 0,0 l/m 0,0 km/h N 9,7 C 21,4 C 2,0 km/h
01.05.2018 20:00 19,5 C 51 % 1009,1 hPa 0,0 l/m 0,0 km/h N 9,1 C 19,5 C 0,0 km/h
01.05.2018 21:00 18,1 C 55 % 1009,7 hPa 0,0 l/m 0,5 km/h N 9,0 C 18,1 C 4,4 km/h
01.05.2018 22:00 17,3 C 58 % 1009,8 hPa 0,0 l/m 0,1 km/h N 8,9 C 17,3 C 1,6 km/h
01.05.2018 23:00 15,8 C 61 % 1010,1 hPa 0,0 l/m 0,3 km/h N 8,3 C 15,8 C 2,4 km/h
02.05.2018 00:00 15,7 C 61 % 1010,5 hPa 0,0 l/m 0,2 km/h N 8,1 C 15,7 C 2,0 km/h
02.05.2018 01:00 15,3 C 66 % 1010,5 hPa 0,0 l/m 0,4 km/h N 8,9 C 15,3 C 3,6 km/h
02.05.2018 02:00 14,8 C 69 % 1010,4 hPa 0,0 l/m 0,4 km/h N 9,2 C 14,8 C 2,4 km/h
02.05.2018 03:00 13,7 C 72 % 1010,3 hPa 0,0 l/m 0,1 km/h N 8,8 C 13,7 C 1,6 km/h
02.05.2018 04:00 12,8 C 74 % 1010,7 hPa 0,0 l/m 0,1 km/h N 8,2 C 12,8 C 0,8 km/h
02.05.2018 05:00 11,8 C 77 % 1010,9 hPa 0,0 l/m 0,1 km/h N 8,0 C 11,8 C 2,0 km/h
02.05.2018 06:00 12,3 C 77 % 1011,1 hPa 0,0 l/m 0,0 km/h N 8,3 C 12,3 C 2,0 km/h
02.05.2018 07:00 13,1 C 77 % 1011,5 hPa 0,0 l/m 0,0 km/h N 9,1 C 13,1 C 0,0 km/h
02.05.2018 08:00 15,5 C 75 % 1011,4 hPa 0,0 l/m 0,0 km/h N 11,1 C 15,5 C 1,2 km/h
02.05.2018 09:00 19,7 C 68 % 1011,1 hPa 0,0 l/m 0,1 km/h N 13,5 C 19,7 C 4,0 km/h
02.05.2018 10:00 22,4 C 61 % 1010,7 hPa 0,0 l/m 0,3 km/h N 14,5 C 22,4 C 5,6 km/h
02.05.2018 11:00 24,1 C 59 % 1010,3 hPa 0,0 l/m 1,7 km/h N 15,4 C 24,1 C 8,9 km/h
02.05.2018 12:00 25,2 C 56 % 1009,7 hPa 0,0 l/m 1,5 km/h N 15,7 C 25,2 C 8,4 km/h
02.05.2018 13:00 24,6 C 60 % 1009,4 hPa 0,0 l/m 1,4 km/h N 16,3 C 24,6 C 9,6 km/h
02.05.2018 14:00 24,9 C 61 % 1008,9 hPa 0,0 l/m 1,4 km/h N 16,7 C 24,9 C 11,7 km/h
02.05.2018 15:00 25,1 C 59 % 1008,2 hPa 0,0 l/m 1,3 km/h N 16,6 C 25,1 C 7,6 km/h
02.05.2018 16:00 25,3 C 60 % 1007,4 hPa 0,0 l/m 0,4 km/h N 17,0 C 25,3 C 5,2 km/h
02.05.2018 17:00 25,1 C 60 % 1006,7 hPa 0,0 l/m 0,6 km/h N 16,7 C 25,1 C 6,8 km/h
02.05.2018 18:00 24,6 C 63 % 1006,0 hPa 0,5 l/m 0,0 km/h N 17,2 C 24,6 C 1,2 km/h
02.05.2018 19:00 21,5 C 75 % 1006,3 hPa 0,3 l/m 0,2 km/h N 16,8 C 21,5 C 3,2 km/h
02.05.2018 20:00 18,6 C 78 % 1006,8 hPa 0,3 l/m 2,5 km/h N 14,7 C 18,6 C 11,3 km/h
02.05.2018 21:00 17,3 C 79 % 1007,6 hPa 6,8 l/m 2,6 km/h N 13,7 C 17,3 C 14,5 km/h
02.05.2018 22:00 15,6 C 81 % 1008,8 hPa 19,2 l/m 2,6 km/h N 12,4 C 15,6 C 12,4 km/h
02.05.2018 23:00 15,2 C 81 % 1008,8 hPa 3,9 l/m 0,4 km/h N 11,9 C 15,2 C 6,4 km/h
03.05.2018 00:00 15,0 C 82 % 1008,6 hPa 0,3 l/m 0,4 km/h N 12,0 C 15,0 C 4,0 km/h
03.05.2018 01:00 14,8 C 82 % 1008,2 hPa 0,0 l/m 0,0 km/h N 11,7 C 14,8 C 0,0 km/h
03.05.2018 02:00 14,3 C 82 % 1008,1 hPa 0,0 l/m 0,0 km/h N 11,3 C 14,3 C 0,0 km/h
03.05.2018 03:00 13,9 C 82 % 1008,0 hPa 0,0 l/m 0,0 km/h N 10,9 C 13,9 C 0,4 km/h
03.05.2018 04:00 13,5 C 83 % 1007,7 hPa 0,0 l/m 0,0 km/h N 10,6 C 13,5 C 0,0 km/h
03.05.2018 05:00 12,9 C 83 % 1007,8 hPa 0,0 l/m 0,0 km/h N 10,0 C 12,9 C 0,0 km/h
03.05.2018 06:00 12,5 C 83 % 1007,9 hPa 0,0 l/m 0,0 km/h N 9,7 C 12,5 C 0,0 km/h
03.05.2018 07:00 13,9 C 83 % 1008,0 hPa 0,0 l/m 0,0 km/h N 11,0 C 13,9 C 0,0 km/h
03.05.2018 08:00 16,1 C 83 % 1008,2 hPa 0,0 l/m 0,2 km/h N 13,1 C 16,1 C 2,4 km/h
03.05.2018 09:00 18,3 C 82 % 1008,3 hPa 0,0 l/m 0,0 km/h N 15,2 C 18,3 C 2,4 km/h
03.05.2018 10:00 21,3 C 76 % 1008,3 hPa 0,0 l/m 0,0 km/h N 16,7 C 21,3 C 1,2 km/h
03.05.2018 11:00 23,1 C 65 % 1008,5 hPa 0,0 l/m 0,7 km/h N 16,1 C 23,1 C 7,6 km/h
03.05.2018 12:00 23,6 C 63 % 1008,5 hPa 0,0 l/m 1,6 km/h N 16,2 C 23,6 C 8,8 km/h
03.05.2018 13:00 24,5 C 61 % 1008,5 hPa 0,0 l/m 1,4 km/h N 16,3 C 24,5 C 7,6 km/h
03.05.2018 14:00 25,6 C 60 % 1008,3 hPa 0,0 l/m 0,6 km/h N 17,2 C 25,6 C 5,6 km/h
03.05.2018 15:00 25,4 C 57 % 1007,9 hPa 0,0 l/m 0,9 km/h N 16,1 C 25,4 C 7,7 km/h
03.05.2018 16:00 25,0 C 56 % 1007,7 hPa 0,0 l/m 0,4 km/h N 15,5 C 25,0 C 6,4 km/h
03.05.2018 17:00 25,1 C 55 % 1007,3 hPa 0,0 l/m 0,2 km/h N 15,4 C 25,1 C 4,0 km/h
03.05.2018 18:00 25,2 C 54 % 1007,0 hPa 0,0 l/m 0,0 km/h N 15,2 C 25,2 C 2,0 km/h
03.05.2018 19:00 24,4 C 60 % 1007,3 hPa 0,0 l/m 0,0 km/h N 16,0 C 24,4 C 0,0 km/h
03.05.2018 20:00 21,5 C 67 % 1008,4 hPa 0,0 l/m 0,0 km/h N 15,1 C 21,5 C 0,4 km/h
03.05.2018 21:00 19,5 C 72 % 1009,3 hPa 0,0 l/m 0,0 km/h N 14,4 C 19,5 C 2,8 km/h
03.05.2018 22:00 19,8 C 69 % 1009,6 hPa 0,0 l/m 6,7 km/h N 14,0 C 19,1 C 19,3 km/h
03.05.2018 23:00 19,4 C 72 % 1010,3 hPa 0,0 l/m 6,9 km/h N 14,2 C 18,9 C 18,5 km/h
04.05.2018 00:00 18,5 C 75 % 1011,2 hPa 0,0 l/m 6,5 km/h N 13,8 C 18,4 C 18,1 km/h
04.05.2018 01:00 17,5 C 76 % 1011,3 hPa 0,0 l/m 4,9 km/h N 13,3 C 17,5 C 17,3 km/h
04.05.2018 02:00 17,0 C 78 % 1011,4 hPa 0,0 l/m 5,4 km/h N 13,1 C 17,0 C 16,1 km/h
04.05.2018 03:00 16,7 C 79 % 1012,2 hPa 0,0 l/m 5,0 km/h N 13,0 C 16,7 C 16,5 km/h
04.05.2018 04:00 16,5 C 79 % 1012,6 hPa 0,0 l/m 6,1 km/h N 12,8 C 16,4 C 19,3 km/h
04.05.2018 05:00 16,0 C 79 % 1012,9 hPa 0,0 l/m 7,0 km/h N 12,4 C 15,7 C 19,3 km/h
04.05.2018 06:00 15,7 C 79 % 1013,7 hPa 0,0 l/m 4,0 km/h N 12,0 C 15,7 C 16,5 km/h
04.05.2018 07:00 15,6 C 79 % 1014,1 hPa 0,0 l/m 4,6 km/h N 12,0 C 15,6 C 16,9 km/h
04.05.2018 08:00 15,8 C 80 % 1014,6 hPa 0,0 l/m 3,9 km/h N 12,2 C 15,8 C 12,5 km/h
04.05.2018 09:00 16,4 C 79 % 1014,6 hPa 0,0 l/m 6,2 km/h N 12,7 C 16,3 C 18,5 km/h
04.05.2018 10:00 17,2 C 77 % 1014,6 hPa 0,0 l/m 5,9 km/h N 13,2 C 17,0 C 18,9 km/h
04.05.2018 11:00 17,9 C 77 % 1014,8 hPa 0,0 l/m 6,4 km/h N 13,7 C 17,8 C 18,5 km/h
04.05.2018 12:00 19,0 C 75 % 1014,9 hPa 0,0 l/m 6,2 km/h N 14,3 C 18,9 C 19,3 km/h
04.05.2018 13:00 19,7 C 73 % 1014,9 hPa 0,0 l/m 6,3 km/h N 14,7 C 19,5 C 18,9 km/h
04.05.2018 14:00 20,3 C 72 % 1014,8 hPa 0,0 l/m 6,6 km/h N 15,1 C 20,0 C 18,5 km/h
04.05.2018 15:00 21,3 C 70 % 1014,3 hPa 0,0 l/m 4,9 km/h N 15,7 C 21,3 C 16,1 km/h
04.05.2018 16:00 21,8 C 68 % 1014,0 hPa 0,0 l/m 3,8 km/h N 15,7 C 21,8 C 13,7 km/h
04.05.2018 17:00 21,7 C 70 % 1014,1 hPa 0,0 l/m 3,8 km/h N 16,0 C 21,7 C 14,9 km/h
04.05.2018 18:00 21,8 C 70 % 1014,0 hPa 0,0 l/m 2,9 km/h N 16,1 C 21,8 C 11,7 km/h
04.05.2018 19:00 21,4 C 65 % 1014,6 hPa 0,0 l/m 3,1 km/h N 14,4 C 21,4 C 12,5 km/h
04.05.2018 20:00 19,9 C 65 % 1015,4 hPa 0,0 l/m 2,9 km/h N 13,0 C 19,9 C 11,3 km/h
04.05.2018 21:00 18,5 C 69 % 1016,3 hPa 0,0 l/m 1,4 km/h N 12,7 C 18,5 C 9,3 km/h
04.05.2018 22:00 17,5 C 72 % 1016,7 hPa 0,0 l/m 1,6 km/h N 12,4 C 17,5 C 12,5 km/h
04.05.2018 23:00 16,6 C 75 % 1017,1 hPa 0,0 l/m 0,6 km/h N 12,1 C 16,6 C 6,4 km/h
05.05.2018 00:00 15,9 C 78 % 1017,4 hPa 0,0 l/m 1,6 km/h N 11,9 C 15,9 C 8,9 km/h
05.05.2018 01:00 15,6 C 78 % 1017,4 hPa 0,0 l/m 3,3 km/h N 11,8 C 15,6 C 14,9 km/h
05.05.2018 02:00 15,2 C 78 % 1017,4 hPa 0,0 l/m 3,0 km/h N 11,4 C 15,2 C 13,3 km/h
05.05.2018 03:00 15,2 C 78 % 1017,6 hPa 0,0 l/m 5,0 km/h N 11,3 C 15,2 C 14,5 km/h
05.05.2018 04:00 14,8 C 78 % 1018,0 hPa 0,0 l/m 5,0 km/h N 11,0 C 14,8 C 14,5 km/h
05.05.2018 05:00 14,7 C 78 % 1018,3 hPa 0,0 l/m 5,6 km/h N 10,9 C 14,6 C 18,1 km/h
05.05.2018 06:00 14,9 C 78 % 1018,8 hPa 0,0 l/m 5,8 km/h N 11,0 C 14,7 C 17,3 km/h
05.05.2018 07:00 14,9 C 77 % 1018,8 hPa 0,0 l/m 6,3 km/h N 10,9 C 14,7 C 18,1 km/h
05.05.2018 08:00 15,4 C 77 % 1018,9 hPa 0,0 l/m 6,6 km/h N 11,3 C 14,9 C 20,1 km/h
05.05.2018 09:00 15,7 C 75 % 1019,5 hPa 0,0 l/m 5,8 km/h N 11,2 C 15,5 C 17,3 km/h
05.05.2018 10:00 15,9 C 75 % 1019,8 hPa 0,0 l/m 7,5 km/h N 11,5 C 15,2 C 22,5 km/h
05.05.2018 11:00 17,3 C 73 % 1019,7 hPa 0,0 l/m 8,3 km/h N 12,4 C 16,4 C 22,9 km/h
05.05.2018 12:00 19,1 C 70 % 1019,4 hPa 0,0 l/m 7,6 km/h N 13,5 C 18,5 C 20,9 km/h
05.05.2018 13:00 20,0 C 67 % 1019,2 hPa 0,0 l/m 6,2 km/h N 13,7 C 19,9 C 18,9 km/h
05.05.2018 14:00 20,9 C 63 % 1019,0 hPa 0,0 l/m 7,4 km/h N 13,5 C 20,6 C 21,3 km/h
05.05.2018 15:00 21,1 C 60 % 1018,7 hPa 0,0 l/m 8,9 km/h N 12,9 C 20,2 C 20,9 km/h
05.05.2018 16:00 21,7 C 58 % 1018,3 hPa 0,0 l/m 8,5 km/h N 13,0 C 21,0 C 21,7 km/h
05.05.2018 17:00 21,7 C 54 % 1018,3 hPa 0,0 l/m 7,8 km/h N 11,9 C 21,3 C 24,1 km/h
05.05.2018 18:00 21,5 C 48 % 1018,4 hPa 0,0 l/m 6,0 km/h N 10,0 C 21,4 C 20,1 km/h
05.05.2018 19:00 20,7 C 48 % 1018,5 hPa 0,0 l/m 5,2 km/h N 9,3 C 20,7 C 18,1 km/h
05.05.2018 20:00 19,4 C 48 % 1019,0 hPa 0,0 l/m 2,5 km/h N 8,0 C 19,4 C 14,5 km/h
05.05.2018 21:00 18,3 C 48 % 1019,7 hPa 0,0 l/m 3,1 km/h N 7,1 C 18,3 C 14,1 km/h
05.05.2018 22:00 17,1 C 49 % 1020,0 hPa 0,0 l/m 1,4 km/h N 6,3 C 17,1 C 9,2 km/h
05.05.2018 23:00 15,7 C 49 % 1020,3 hPa 0,0 l/m 1,0 km/h N 5,1 C 15,7 C 10,9 km/h
06.05.2018 00:00 14,9 C 47 % 1020,4 hPa 0,0 l/m 3,0 km/h N 3,7 C 14,9 C 13,7 km/h
06.05.2018 01:00 14,4 C 48 % 1020,5 hPa 0,0 l/m 3,1 km/h N 3,5 C 14,4 C 10,5 km/h
06.05.2018 02:00 13,7 C 48 % 1020,5 hPa 0,0 l/m 4,2 km/h N 2,9 C 13,7 C 16,1 km/h
06.05.2018 03:00 13,1 C 49 % 1020,5 hPa 0,0 l/m 3,3 km/h N 2,7 C 13,1 C 12,5 km/h
06.05.2018 04:00 12,7 C 51 % 1020,4 hPa 0,0 l/m 1,8 km/h N 2,7 C 12,7 C 11,7 km/h
06.05.2018 05:00 12,5 C 52 % 1020,4 hPa 0,0 l/m 5,4 km/h N 2,8 C 12,5 C 17,3 km/h
06.05.2018 06:00 12,4 C 53 % 1020,6 hPa 0,0 l/m 5,1 km/h N 3,1 C 12,4 C 18,1 km/h
06.05.2018 07:00 12,9 C 54 % 1020,7 hPa 0,0 l/m 7,9 km/h N 3,9 C 11,9 C 22,1 km/h
06.05.2018 08:00 13,8 C 55 % 1020,7 hPa 0,0 l/m 10,2 km/h N 4,9 C 11,7 C 25,3 km/h
06.05.2018 09:00 15,7 C 54 % 1020,6 hPa 0,0 l/m 8,6 km/h N 6,3 C 14,5 C 27,0 km/h
06.05.2018 10:00 17,3 C 50 % 1020,7 hPa 0,0 l/m 9,0 km/h N 6,8 C 16,1 C 22,9 km/h
06.05.2018 11:00 18,5 C 49 % 1020,4 hPa 0,0 l/m 9,2 km/h N 7,7 C 17,3 C 24,9 km/h
06.05.2018 12:00 19,6 C 45 % 1020,3 hPa 0,0 l/m 9,3 km/h N 7,4 C 18,4 C 23,7 km/h
06.05.2018 13:00 20,3 C 44 % 1019,8 hPa 0,0 l/m 9,3 km/h N 7,6 C 19,2 C 27,0 km/h
06.05.2018 14:00 21,2 C 42 % 1019,3 hPa 0,0 l/m 7,2 km/h N 7,7 C 20,9 C 23,3 km/h
06.05.2018 15:00 21,4 C 41 % 1018,9 hPa 0,0 l/m 6,9 km/h N 7,5 C 21,3 C 22,1 km/h
06.05.2018 16:00 21,6 C 39 % 1018,5 hPa 0,0 l/m 6,7 km/h N 7,0 C 21,4 C 21,7 km/h
06.05.2018 17:00 21,5 C 38 % 1018,4 hPa 0,0 l/m 6,1 km/h N 6,6 C 21,4 C 20,9 km/h
06.05.2018 18:00 21,1 C 41 % 1018,2 hPa 0,0 l/m 6,8 km/h N 7,5 C 21,0 C 19,3 km/h
06.05.2018 19:00 20,7 C 44 % 1018,4 hPa 0,0 l/m 3,3 km/h N 8,1 C 20,7 C 14,1 km/h
06.05.2018 20:00 19,1 C 47 % 1018,7 hPa 0,0 l/m 1,4 km/h N 7,5 C 19,1 C 9,3 km/h
06.05.2018 21:00 17,5 C 52 % 1019,3 hPa 0,0 l/m 0,4 km/h N 7,4 C 17,5 C 6,0 km/h
06.05.2018 22:00 16,6 C 53 % 1019,3 hPa 0,0 l/m 1,2 km/h N 7,0 C 16,6 C 8,0 km/h
06.05.2018 23:00 16,2 C 54 % 1019,5 hPa 0,0 l/m 1,6 km/h N 6,7 C 16,2 C 8,4 km/h
Min-Datum _ 02.05.18 30.04.18 30.04.18 - 30.04.18 - 06.05.18 06.05.18 30.04.18
_ Min-Zeit 05:15 15:45 18:00 - 00:00 - 03:30 08:15 01:45
Minimum _ 11,7 C 36 % 1001,9 hPa - 0,0 km/h - 2,5 C 11,1 C 0,0 km/h
Max-Datum _ 30.04.18 03.05.18 06.05.18 02.05.18 06.05.18 - 02.05.18 30.04.18 06.05.18
_ Max-Zeit 13:30 04:00 07:15 22:00 11:00 - 18:45 13:30 09:15
Maximum _ 27,7 C 83 % 1020,8 hPa 19,2 l/m 11,0 km/h
N
- 17,9 C 27,7 C 30,6 km/h
N
Durchschnitt _ 18,7 C 62 % 1011,7 hPa #31,2 l/m 2,9 km/h N 10,9 C 18,6 C 11,0 km/h